Skip Navigation LinksHome page > Weather > Current weather Skip Navigation Links

Current Weather

Cincinnati/Northern Kentucky International, Covington, Ky.

For information only: do not use for flight planning or navigation.
Latest weather
Observation time Sunday, September 20, 2020 9:52 AM EDT
Local time Sunday, September 20, 2020 10:53 AM EDT
Flight conditions Visual Meteorological Conditions
Winds
Wind direction East-Northeast (60°)
Wind speed 8 mph
Visibility 10 mi.
Sky condition
Ceiling unlimited
Sky clear
Temperature 55°F
Dewpoint 38°F
Altimeter 30.40 in.Hg
Derived measurements
Relative humidity 52%
Density altitude 205 ft.
Sea-level pressure 30.40 in.Hg
Remarks
Automated weather observing station with precipitation discriminator.
METAR KCVG 201352Z 06007KT 10SM CLR 13/03 A3040 RMK AO2 SLP293 T01280033

Settings

Location code

InnerDrive.Weather 4.0.6770.0 Release CLR 4.0.30319.42000
Copyright ©2018 Inner Drive Technology. All rights reserved. Portions Copyright ©1986-2018 David Braverman.

Find weather

Site navigation


Skip Navigation Links

Place info

Page info

PayPal - The safer, easier way to pay online!

Return home.

Copyright ©2020 Inner Drive Technology. Purveyors of fine, hand-crafted computer software. Page printed 2020-09-20T14:53:06 UTC.